createdAt,value
2022-10-23T00:02:18.196Z,6.45
2022-10-23T00:07:34.260Z,6.90
2022-10-23T00:13:25.807Z,8.40
2022-10-23T00:18:45.997Z,7.13
2022-10-23T00:29:32.258Z,5.35
2022-10-23T00:35:09.426Z,6.63
2022-10-23T00:40:39.377Z,7.35
2022-10-23T00:51:58.499Z,6.32
2022-10-23T01:03:28.557Z,7.35
2022-10-23T01:08:55.846Z,5.22
2022-10-23T01:14:19.070Z,6.25
2022-10-23T01:19:52.340Z,5.35
2022-10-23T01:25:27.277Z,5.25
2022-10-23T01:30:43.229Z,6.95
2022-10-23T01:36:06.306Z,6.70
2022-10-23T01:41:28.193Z,4.57
2022-10-23T01:46:53.597Z,5.43
2022-10-23T01:52:00.379Z,5.70
2022-10-23T01:57:09.545Z,6.22
2022-10-23T02:02:21.870Z,4.40
2022-10-23T02:07:38.351Z,4.90
2022-10-23T02:12:52.398Z,4.70
2022-10-23T02:18:24.044Z,6.68
2022-10-23T02:23:34.252Z,4.70
2022-10-23T02:28:43.486Z,5.00
2022-10-23T02:33:52.147Z,6.10
2022-10-23T02:39:00.449Z,4.95
2022-10-23T02:44:15.366Z,6.80
2022-10-23T02:49:33.605Z,6.47
2022-10-23T02:54:48.997Z,8.00
2022-10-23T03:00:04.262Z,12.32
2022-10-23T03:05:14.525Z,12.68
2022-10-23T03:10:25.332Z,9.80
2022-10-23T03:15:32.735Z,10.32
2022-10-23T03:20:43.911Z,12.52
2022-10-23T03:25:49.238Z,12.80
2022-10-23T03:31:07.870Z,11.35
2022-10-23T03:36:16.127Z,11.80
2022-10-23T03:41:30.844Z,12.38
2022-10-23T03:46:45.407Z,19.83
2022-10-23T03:52:09.259Z,15.75
2022-10-23T03:57:25.440Z,13.20
2022-10-23T04:09:41.006Z,14.88
2022-10-23T04:14:55.408Z,22.20
2022-10-23T04:20:02.470Z,15.88
2022-10-23T04:25:20.774Z,16.77
2022-10-23T04:30:45.010Z,21.85
2022-10-23T04:35:54.893Z,13.30
2022-10-23T04:41:12.915Z,13.18
2022-10-23T04:46:33.155Z,14.65
2022-10-23T04:58:26.230Z,12.27
2022-10-23T05:03:42.467Z,14.73
2022-10-23T05:08:52.150Z,19.38
2022-10-23T05:14:11.134Z,17.00
2022-10-23T05:19:32.197Z,16.27
2022-10-23T05:24:37.359Z,19.30
2022-10-23T05:29:42.762Z,17.08
2022-10-23T05:34:51.906Z,19.52
2022-10-23T05:39:57.115Z,25.88
2022-10-23T05:45:03.833Z,21.20
2022-10-23T05:50:12.602Z,25.77
2022-10-23T05:55:21.444Z,24.60
2022-10-23T06:00:33.463Z,20.25
2022-10-23T06:06:25.844Z,17.83
2022-10-23T06:11:34.253Z,15.02
2022-10-23T06:16:44.221Z,16.27
2022-10-23T06:21:56.514Z,15.90
2022-10-23T06:27:17.904Z,13.65
2022-10-23T06:38:40.128Z,14.15
2022-10-23T06:44:19.395Z,15.90
2022-10-23T06:49:24.545Z,13.77
2022-10-23T06:54:37.216Z,12.82
2022-10-23T06:59:46.664Z,16.33
2022-10-23T07:05:13.864Z,16.73
2022-10-23T07:10:22.243Z,10.38
2022-10-23T07:15:31.612Z,11.40
2022-10-23T07:21:07.500Z,11.57
2022-10-23T07:32:38.263Z,16.40
2022-10-23T07:38:07.943Z,16.70
2022-10-23T07:49:34.448Z,18.25
2022-10-23T07:55:00.554Z,16.60
2022-10-23T08:12:08.258Z,16.85
2022-10-23T08:17:16.134Z,14.75
2022-10-23T08:22:23.402Z,18.33
2022-10-23T08:27:28.591Z,14.27
2022-10-23T08:32:42.863Z,13.15
2022-10-23T08:37:50.753Z,11.45
2022-10-23T08:43:06.197Z,13.95
2022-10-23T08:48:58.086Z,11.52
2022-10-23T08:54:08.722Z,15.70
2022-10-23T08:59:26.501Z,15.18
2022-10-23T09:04:35.408Z,16.27
2022-10-23T09:09:59.912Z,16.65
2022-10-23T09:15:17.728Z,13.15
2022-10-23T09:20:59.092Z,13.20
2022-10-23T09:26:15.615Z,13.60
2022-10-23T09:37:53.554Z,12.57
2022-10-23T11:08:57.563Z,10.93
2022-10-23T16:24:19.849Z,8.38
2022-10-23T16:36:53.912Z,8.15
2022-10-23T16:49:09.204Z,11.35
2022-10-23T17:56:13.998Z,11.23
2022-10-23T18:01:52.111Z,12.82
2022-10-23T18:07:04.675Z,11.63
2022-10-23T18:17:41.690Z,16.20
2022-10-23T18:22:58.961Z,11.85
2022-10-23T18:33:35.871Z,12.02
2022-10-23T18:52:50.802Z,12.25
2022-10-23T19:09:36.808Z,11.05
2022-10-23T19:14:48.421Z,12.27
2022-10-23T19:32:06.432Z,16.20
2022-10-23T19:37:11.579Z,12.02
2022-10-23T19:42:43.823Z,12.43
2022-10-23T19:47:51.876Z,16.92
2022-10-23T19:53:40.926Z,15.20
2022-10-23T19:58:51.075Z,14.05
2022-10-23T20:03:59.114Z,14.82
2022-10-23T20:09:06.178Z,15.07
2022-10-23T20:14:21.009Z,14.52
2022-10-23T20:19:33.342Z,15.93
2022-10-23T20:25:26.704Z,18.90
2022-10-23T23:22:28.957Z,22.50
2022-10-23T23:27:37.515Z,19.67
2022-10-23T23:32:49.026Z,17.08
2022-10-23T23:38:03.350Z,16.02
2022-10-23T23:44:01.897Z,15.65
2022-10-23T23:54:55.717Z,20.58
